sensor_id;sensor_type;location;lat;lon;timestamp;pressure;altitude;pressure_sealevel;temperature;humidity
19789;BME280;10054;59.332;18.244;2024-02-14T00:01:57;100656.77;;;-1.73;100.00
19789;BME280;10054;59.332;18.244;2024-02-14T00:04:26;100661.97;;;-1.74;100.00
19789;BME280;10054;59.332;18.244;2024-02-14T00:06:55;100662.86;;;-1.77;100.00
19789;BME280;10054;59.332;18.244;2024-02-14T00:09:25;100656.84;;;-1.79;100.00
19789;BME280;10054;59.332;18.244;2024-02-14T00:11:54;100653.84;;;-1.80;100.00
19789;BME280;10054;59.332;18.244;2024-02-14T00:14:23;100659.45;;;-1.80;100.00
19789;BME280;10054;59.332;18.244;2024-02-14T00:16:52;100653.89;;;-1.84;100.00
19789;BME280;10054;59.332;18.244;2024-02-14T00:19:21;100656.93;;;-1.86;100.00
19789;BME280;10054;59.332;18.244;2024-02-14T00:21:50;100658.68;;;-1.88;100.00
19789;BME280;10054;59.332;18.244;2024-02-14T00:24:20;100667.31;;;-1.89;100.00
19789;BME280;10054;59.332;18.244;2024-02-14T00:26:50;100656.58;;;-1.93;100.00
19789;BME280;10054;59.332;18.244;2024-02-14T00:29:19;100661.75;;;-1.93;100.00
19789;BME280;10054;59.332;18.244;2024-02-14T00:31:48;100659.58;;;-1.92;100.00
19789;BME280;10054;59.332;18.244;2024-02-14T00:34:18;100664.27;;;-1.87;100.00
19789;BME280;10054;59.332;18.244;2024-02-14T00:36:47;100668.06;;;-1.80;100.00
19789;BME280;10054;59.332;18.244;2024-02-14T00:39:16;100667.20;;;-1.80;100.00
19789;BME280;10054;59.332;18.244;2024-02-14T00:41:46;100666.41;;;-1.85;100.00
19789;BME280;10054;59.332;18.244;2024-02-14T00:44:16;100669.48;;;-1.92;100.00
19789;BME280;10054;59.332;18.244;2024-02-14T00:46:46;100679.02;;;-1.97;100.00
19789;BME280;10054;59.332;18.244;2024-02-14T00:49:16;100688.54;;;-2.01;100.00
19789;BME280;10054;59.332;18.244;2024-02-14T00:51:45;100689.83;;;-2.01;100.00
19789;BME280;10054;59.332;18.244;2024-02-14T00:54:14;100692.86;;;-2.03;100.00
19789;BME280;10054;59.332;18.244;2024-02-14T00:56:43;100701.98;;;-2.10;100.00
19789;BME280;10054;59.332;18.244;2024-02-14T00:59:12;100704.16;;;-2.13;100.00
19789;BME280;10054;59.332;18.244;2024-02-14T01:01:41;100696.02;;;-2.17;100.00
19789;BME280;10054;59.332;18.244;2024-02-14T01:04:11;100699.06;;;-2.20;100.00
19789;BME280;10054;59.332;18.244;2024-02-14T01:06:40;100697.42;;;-2.26;100.00
19789;BME280;10054;59.332;18.244;2024-02-14T01:09:09;100697.47;;;-2.30;100.00
19789;BME280;10054;59.332;18.244;2024-02-14T01:11:38;100700.52;;;-2.34;100.00
19789;BME280;10054;59.332;18.244;2024-02-14T01:14:07;100694.53;;;-2.39;100.00
19789;BME280;10054;59.332;18.244;2024-02-14T01:16:44;100694.13;;;-2.43;100.00
19789;BME280;10054;59.332;18.244;2024-02-14T01:19:14;100698.03;;;-2.46;100.00
19789;BME280;10054;59.332;18.244;2024-02-14T01:21:43;100704.09;;;-2.50;100.00
19789;BME280;10054;59.332;18.244;2024-02-14T01:24:14;100708.86;;;-2.54;100.00
19789;BME280;10054;59.332;18.244;2024-02-14T01:26:44;100709.29;;;-2.55;100.00
19789;BME280;10054;59.332;18.244;2024-02-14T01:29:13;100707.58;;;-2.56;100.00
19789;BME280;10054;59.332;18.244;2024-02-14T01:31:43;100713.61;;;-2.57;100.00
19789;BME280;10054;59.332;18.244;2024-02-14T01:34:12;100711.47;;;-2.59;100.00
19789;BME280;10054;59.332;18.244;2024-02-14T01:36:41;100710.19;;;-2.59;100.00
19789;BME280;10054;59.332;18.244;2024-02-14T01:39:10;100710.17;;;-2.57;100.00
19789;BME280;10054;59.332;18.244;2024-02-14T01:41:44;100706.30;;;-2.57;100.00
19789;BME280;10054;59.332;18.244;2024-02-14T01:44:17;100709.70;;;-2.52;100.00
19789;BME280;10054;59.332;18.244;2024-02-14T01:46:48;100713.98;;;-2.50;100.00
19789;BME280;10054;59.332;18.244;2024-02-14T01:49:17;100716.19;;;-2.55;100.00
19789;BME280;10054;59.332;18.244;2024-02-14T01:51:46;100721.37;;;-2.58;100.00
19789;BME280;10054;59.332;18.244;2024-02-14T01:54:16;100724.42;;;-2.63;100.00
19789;BME280;10054;59.332;18.244;2024-02-14T01:56:46;100731.33;;;-2.67;100.00
19789;BME280;10054;59.332;18.244;2024-02-14T01:59:15;100733.05;;;-2.66;100.00
19789;BME280;10054;59.332;18.244;2024-02-14T02:01:46;100730.92;;;-2.71;100.00
19789;BME280;10054;59.332;18.244;2024-02-14T02:04:15;100723.66;;;-2.78;100.00
19789;BME280;10054;59.332;18.244;2024-02-14T02:06:44;100728.00;;;-2.84;100.00
19789;BME280;10054;59.332;18.244;2024-02-14T02:09:17;100737.89;;;-2.85;100.00
19789;BME280;10054;59.332;18.244;2024-02-14T02:11:53;100740.91;;;-2.84;100.00
19789;BME280;10054;59.332;18.244;2024-02-14T02:14:23;100740.05;;;-2.86;100.00
19789;BME280;10054;59.332;18.244;2024-02-14T02:16:53;100734.05;;;-2.88;100.00
19789;BME280;10054;59.332;18.244;2024-02-14T02:19:22;100738.77;;;-2.88;100.00
19789;BME280;10054;59.332;18.244;2024-02-14T02:21:52;100734.88;;;-2.85;100.00
19789;BME280;10054;59.332;18.244;2024-02-14T02:24:21;100738.33;;;-2.84;100.00
19789;BME280;10054;59.332;18.244;2024-02-14T02:26:49;100737.89;;;-2.84;100.00
19789;BME280;10054;59.332;18.244;2024-02-14T02:29:18;100737.91;;;-2.87;100.00
19789;BME280;10054;59.332;18.244;2024-02-14T02:31:47;100739.64;;;-2.89;100.00
19789;BME280;10054;59.332;18.244;2024-02-14T02:34:17;100740.48;;;-2.87;100.00
19789;BME280;10054;59.332;18.244;2024-02-14T02:36:46;100739.63;;;-2.87;100.00
19789;BME280;10054;59.332;18.244;2024-02-14T02:39:17;100728.90;;;-2.91;100.00
19789;BME280;10054;59.332;18.244;2024-02-14T02:41:46;100733.22;;;-2.95;100.00
19789;BME280;10054;59.332;18.244;2024-02-14T02:44:16;100738.44;;;-2.98;100.00
19789;BME280;10054;59.332;18.244;2024-02-14T02:46:45;100740.59;;;-2.99;100.00
19789;BME280;10054;59.332;18.244;2024-02-14T02:49:14;100734.58;;;-3.01;100.00
19789;BME280;10054;59.332;18.244;2024-02-14T02:51:44;100742.32;;;-3.01;100.00
19789;BME280;10054;59.332;18.244;2024-02-14T02:54:13;100748.72;;;-2.97;100.00
19789;BME280;10054;59.332;18.244;2024-02-14T02:56:42;100744.78;;;-2.86;100.00
19789;BME280;10054;59.332;18.244;2024-02-14T02:59:11;100740.82;;;-2.71;100.00
19789;BME280;10054;59.332;18.244;2024-02-14T03:01:41;100743.80;;;-2.67;100.00
19789;BME280;10054;59.332;18.244;2024-02-14T03:04:10;100755.46;;;-2.73;100.00
19789;BME280;10054;59.332;18.244;2024-02-14T03:06:40;100751.19;;;-2.78;100.00
19789;BME280;10054;59.332;18.244;2024-02-14T03:09:11;100749.93;;;-2.83;100.00
19789;BME280;10054;59.332;18.244;2024-02-14T03:11:42;100757.27;;;-2.87;100.00
19789;BME280;10054;59.332;18.244;2024-02-14T03:14:11;100754.28;;;-2.92;100.00
19789;BME280;10054;59.332;18.244;2024-02-14T03:16:40;100751.27;;;-2.92;100.00
19789;BME280;10054;59.332;18.244;2024-02-14T03:19:09;100759.88;;;-2.93;100.00
19789;BME280;10054;59.332;18.244;2024-02-14T03:21:38;100760.30;;;-2.92;100.00
19789;BME280;10054;59.332;18.244;2024-02-14T03:24:07;100758.16;;;-2.92;100.00
19789;BME280;10054;59.332;18.244;2024-02-14T03:26:37;100765.47;;;-2.92;100.00
19789;BME280;10054;59.332;18.244;2024-02-14T03:29:06;100768.47;;;-2.89;100.00
19789;BME280;10054;59.332;18.244;2024-02-14T03:31:35;100775.78;;;-2.89;100.00
19789;BME280;10054;59.332;18.244;2024-02-14T03:34:05;100766.74;;;-2.89;100.00
19789;BME280;10054;59.332;18.244;2024-02-14T03:36:41;100767.16;;;-2.86;100.00
19789;BME280;10054;59.332;18.244;2024-02-14T03:39:06;100770.59;;;-2.86;100.00
19789;BME280;10054;59.332;18.244;2024-02-14T03:41:36;100770.16;;;-2.85;100.00
19789;BME280;10054;59.332;18.244;2024-02-14T03:44:05;100776.62;;;-2.85;100.00
19789;BME280;10054;59.332;18.244;2024-02-14T03:46:36;100777.91;;;-2.84;100.00
19789;BME280;10054;59.332;18.244;2024-02-14T03:49:05;100784.34;;;-2.81;100.00
19789;BME280;10054;59.332;18.244;2024-02-14T03:51:34;100785.20;;;-2.80;100.00
19789;BME280;10054;59.332;18.244;2024-02-14T03:54:04;100787.34;;;-2.78;100.00
19789;BME280;10054;59.332;18.244;2024-02-14T03:56:33;100802.82;;;-2.77;100.00
19789;BME280;10054;59.332;18.244;2024-02-14T03:59:02;100796.80;;;-2.77;100.00
19789;BME280;10054;59.332;18.244;2024-02-14T04:01:33;100799.78;;;-2.72;100.00
19789;BME280;10054;59.332;18.244;2024-02-14T04:04:02;100804.47;;;-2.63;100.00
19789;BME280;10054;59.332;18.244;2024-02-14T04:06:31;100805.27;;;-2.52;100.00
19789;BME280;10054;59.332;18.244;2024-02-14T04:09:00;100806.92;;;-2.42;100.00
19789;BME280;10054;59.332;18.244;2024-02-14T04:11:29;100810.78;;;-2.41;100.00
19789;BME280;10054;59.332;18.244;2024-02-14T04:13:58;100802.64;;;-2.46;100.00
19789;BME280;10054;59.332;18.244;2024-02-14T04:16:27;100806.97;;;-2.50;100.00
19789;BME280;10054;59.332;18.244;2024-02-14T04:18:56;100811.73;;;-2.54;100.00
19789;BME280;10054;59.332;18.244;2024-02-14T04:21:25;100806.56;;;-2.54;100.00
19789;BME280;10054;59.332;18.244;2024-02-14T04:23:54;100808.29;;;-2.54;100.00
19789;BME280;10054;59.332;18.244;2024-02-14T04:26:25;100812.16;;;-2.54;100.00
19789;BME280;10054;59.332;18.244;2024-02-14T04:28:54;100814.73;;;-2.53;100.00
19789;BME280;10054;59.332;18.244;2024-02-14T04:31:23;100815.16;;;-2.52;100.00
19789;BME280;10054;59.332;18.244;2024-02-14T04:33:53;100820.75;;;-2.51;100.00
19789;BME280;10054;59.332;18.244;2024-02-14T04:36:22;100817.73;;;-2.50;100.00
19789;BME280;10054;59.332;18.244;2024-02-14T04:38:52;100827.19;;;-2.48;100.00
19789;BME280;10054;59.332;18.244;2024-02-14T04:41:21;100827.20;;;-2.49;100.00
19789;BME280;10054;59.332;18.244;2024-02-14T04:43:51;100828.50;;;-2.51;100.00
19789;BME280;10054;59.332;18.244;2024-02-14T04:46:20;100842.29;;;-2.53;100.00
19789;BME280;10054;59.332;18.244;2024-02-14T04:48:50;100844.86;;;-2.52;100.00
19789;BME280;10054;59.332;18.244;2024-02-14T04:51:19;100850.02;;;-2.49;100.00
19789;BME280;10054;59.332;18.244;2024-02-14T04:53:48;100856.03;;;-2.48;100.00
19789;BME280;10054;59.332;18.244;2024-02-14T04:56:17;100854.75;;;-2.48;100.00
19789;BME280;10054;59.332;18.244;2024-02-14T04:58:46;100853.03;;;-2.51;100.00
19789;BME280;10054;59.332;18.244;2024-02-14T05:01:15;100850.48;;;-2.55;100.00
19789;BME280;10054;59.332;18.244;2024-02-14T05:03:45;100852.64;;;-2.56;100.00
19789;BME280;10054;59.332;18.244;2024-02-14T05:06:15;100856.94;;;-2.55;100.00
19789;BME280;10054;59.332;18.244;2024-02-14T05:08:44;100850.48;;;-2.55;100.00
19789;BME280;10054;59.332;18.244;2024-02-14T05:11:13;100858.23;;;-2.57;100.00
19789;BME280;10054;59.332;18.244;2024-02-14T05:13:42;100859.97;;;-2.59;100.00
19789;BME280;10054;59.332;18.244;2024-02-14T05:16:11;100859.55;;;-2.61;100.00
19789;BME280;10054;59.332;18.244;2024-02-14T05:18:40;100860.80;;;-2.54;100.00
19789;BME280;10054;59.332;18.244;2024-02-14T05:21:09;100862.05;;;-2.45;100.00
19789;BME280;10054;59.332;18.244;2024-02-14T05:23:39;100855.91;;;-2.27;100.00
19789;BME280;10054;59.332;18.244;2024-02-14T05:26:08;100855.38;;;-2.17;100.00
19789;BME280;10054;59.332;18.244;2024-02-14T05:28:37;100862.28;;;-2.18;100.00
19789;BME280;10054;59.332;18.244;2024-02-14T05:31:06;100861.00;;;-2.19;100.00
19789;BME280;10054;59.332;18.244;2024-02-14T05:33:35;100863.17;;;-2.22;100.00
19789;BME280;10054;59.332;18.244;2024-02-14T05:36:05;100861.06;;;-2.24;100.00
19789;BME280;10054;59.332;18.244;2024-02-14T05:38:34;100854.62;;;-2.27;100.00
19789;BME280;10054;59.332;18.244;2024-02-14T05:41:04;100856.78;;;-2.28;100.00
19789;BME280;10054;59.332;18.244;2024-02-14T05:43:34;100863.23;;;-2.28;100.00
19789;BME280;10054;59.332;18.244;2024-02-14T05:46:04;100864.09;;;-2.27;100.00
19789;BME280;10054;59.332;18.244;2024-02-14T05:48:33;100858.50;;;-2.28;100.00
19789;BME280;10054;59.332;18.244;2024-02-14T05:51:02;100870.17;;;-2.35;100.00
19789;BME280;10054;59.332;18.244;2024-02-14T05:53:32;100868.91;;;-2.41;100.00
19789;BME280;10054;59.332;18.244;2024-02-14T05:56:01;100872.38;;;-2.46;100.00
19789;BME280;10054;59.332;18.244;2024-02-14T05:58:30;100868.09;;;-2.47;100.00
19789;BME280;10054;59.332;18.244;2024-02-14T06:00:59;100878.42;;;-2.49;100.00
19789;BME280;10054;59.332;18.244;2024-02-14T06:03:29;100875.85;;;-2.50;100.00
19789;BME280;10054;59.332;18.244;2024-02-14T06:05:58;100877.98;;;-2.47;100.00
19789;BME280;10054;59.332;18.244;2024-02-14T06:08:26;100882.70;;;-2.45;100.00
19789;BME280;10054;59.332;18.244;2024-02-14T06:10:55;100881.83;;;-2.42;100.00
19789;BME280;10054;59.332;18.244;2024-02-14T06:13:24;100884.83;;;-2.38;100.00
19789;BME280;10054;59.332;18.244;2024-02-14T06:15:54;100887.33;;;-2.24;100.00
19789;BME280;10054;59.332;18.244;2024-02-14T06:18:23;100892.36;;;-2.08;100.00
19789;BME280;10054;59.332;18.244;2024-02-14T06:20:52;100894.03;;;-1.99;100.00
19789;BME280;10054;59.332;18.244;2024-02-14T06:23:21;100897.47;;;-1.99;100.00
19789;BME280;10054;59.332;18.244;2024-02-14T06:25:50;100894.90;;;-2.00;100.00
19789;BME280;10054;59.332;18.244;2024-02-14T06:28:21;100890.20;;;-2.05;100.00
19789;BME280;10054;59.332;18.244;2024-02-14T06:30:50;100897.53;;;-2.08;100.00
19789;BME280;10054;59.332;18.244;2024-02-14T06:33:19;100903.57;;;-2.09;100.00
19789;BME280;10054;59.332;18.244;2024-02-14T06:35:48;100905.30;;;-2.09;100.00
19789;BME280;10054;59.332;18.244;2024-02-14T06:38:17;100901.43;;;-2.11;100.00
19789;BME280;10054;59.332;18.244;2024-02-14T06:40:46;100908.30;;;-2.08;100.00
19789;BME280;10054;59.332;18.244;2024-02-14T06:43:15;100904.00;;;-2.08;100.00
19789;BME280;10054;59.332;18.244;2024-02-14T06:45:45;100909.59;;;-2.07;100.00
19789;BME280;10054;59.332;18.244;2024-02-14T06:48:14;100907.43;;;-2.06;100.00
19789;BME280;10054;59.332;18.244;2024-02-14T06:50:43;100913.88;;;-2.03;100.00
19789;BME280;10054;59.332;18.244;2024-02-14T06:53:12;100913.43;;;-2.01;100.00
19789;BME280;10054;59.332;18.244;2024-02-14T06:55:42;100917.28;;;-1.97;100.00
19789;BME280;10054;59.332;18.244;2024-02-14T06:58:11;100923.31;;;-1.97;100.00
19789;BME280;10054;59.332;18.244;2024-02-14T07:00:40;100922.90;;;-2.00;100.00
19789;BME280;10054;59.332;18.244;2024-02-14T07:03:09;100921.19;;;-2.01;100.00
19789;BME280;10054;59.332;18.244;2024-02-14T07:05:39;100925.02;;;-1.94;100.00
19789;BME280;10054;59.332;18.244;2024-02-14T07:08:08;100930.94;;;-1.77;100.00
19789;BME280;10054;59.332;18.244;2024-02-14T07:10:37;100930.38;;;-1.60;100.00
19789;BME280;10054;59.332;18.244;2024-02-14T07:13:07;100933.34;;;-1.53;100.00
19789;BME280;10054;59.332;18.244;2024-02-14T07:15:36;100937.66;;;-1.53;100.00
19789;BME280;10054;59.332;18.244;2024-02-14T07:18:05;100933.81;;;-1.58;100.00
19789;BME280;10054;59.332;18.244;2024-02-14T07:20:36;100936.39;;;-1.58;100.00
19789;BME280;10054;59.332;18.244;2024-02-14T07:23:05;100941.56;;;-1.56;100.00
19789;BME280;10054;59.332;18.244;2024-02-14T07:25:34;100944.55;;;-1.54;100.00
19789;BME280;10054;59.332;18.244;2024-02-14T07:28:04;100941.97;;;-1.54;100.00
19789;BME280;10054;59.332;18.244;2024-02-14T07:30:33;100946.27;;;-1.53;100.00
19789;BME280;10054;59.332;18.244;2024-02-14T07:33:03;100948.84;;;-1.50;100.00
19789;BME280;10054;59.332;18.244;2024-02-14T07:35:32;100961.28;;;-1.46;100.00
19789;BME280;10054;59.332;18.244;2024-02-14T07:38:01;100952.64;;;-1.44;100.00
19789;BME280;10054;59.332;18.244;2024-02-14T07:40:30;100961.67;;;-1.41;100.00
19789;BME280;10054;59.332;18.244;2024-02-14T07:42:59;100965.08;;;-1.36;100.00
19789;BME280;10054;59.332;18.244;2024-02-14T07:45:28;100968.95;;;-1.34;100.00
19789;BME280;10054;59.332;18.244;2024-02-14T07:47:57;100960.30;;;-1.32;100.00
19789;BME280;10054;59.332;18.244;2024-02-14T07:50:27;100966.76;;;-1.30;100.00
19789;BME280;10054;59.332;18.244;2024-02-14T07:52:56;100966.30;;;-1.26;100.00
19789;BME280;10054;59.332;18.244;2024-02-14T07:55:25;100969.72;;;-1.23;100.00
19789;BME280;10054;59.332;18.244;2024-02-14T07:57:55;100974.43;;;-1.19;100.00
19789;BME280;10054;59.332;18.244;2024-02-14T08:00:24;100974.39;;;-1.15;100.00
19789;BME280;10054;59.332;18.244;2024-02-14T08:02:53;100973.91;;;-1.10;100.00
19789;BME280;10054;59.332;18.244;2024-02-14T08:05:22;100979.84;;;-0.98;100.00
19789;BME280;10054;59.332;18.244;2024-02-14T08:07:51;100975.84;;;-0.86;100.00
19789;BME280;10054;59.332;18.244;2024-02-14T08:10:21;100981.38;;;-0.79;100.00
19789;BME280;10054;59.332;18.244;2024-02-14T08:12:53;100976.67;;;-0.83;100.00
19789;BME280;10054;59.332;18.244;2024-02-14T08:15:22;100978.03;;;-0.89;100.00
19789;BME280;10054;59.332;18.244;2024-02-14T08:17:51;100979.80;;;-0.94;100.00
19789;BME280;10054;59.332;18.244;2024-02-14T08:20:22;100984.58;;;-0.96;100.00
19789;BME280;10054;59.332;18.244;2024-02-14T08:22:51;100988.48;;;-1.00;100.00
19789;BME280;10054;59.332;18.244;2024-02-14T08:25:21;100986.35;;;-1.02;100.00
19789;BME280;10054;59.332;18.244;2024-02-14T08:27:50;100988.95;;;-1.03;100.00
19789;BME280;10054;59.332;18.244;2024-02-14T08:30:20;100987.23;;;-1.04;100.00
19789;BME280;10054;59.332;18.244;2024-02-14T08:32:49;100988.50;;;-1.01;100.00
19789;BME280;10054;59.332;18.244;2024-02-14T08:35:18;100989.78;;;-1.00;100.00
19789;BME280;10054;59.332;18.244;2024-02-14T08:37:47;100996.25;;;-0.98;100.00
19789;BME280;10054;59.332;18.244;2024-02-14T08:40:16;100998.37;;;-0.94;100.00
19789;BME280;10054;59.332;18.244;2024-02-14T08:42:45;101004.38;;;-0.91;100.00
19789;BME280;10054;59.332;18.244;2024-02-14T08:45:15;101002.20;;;-0.88;100.00
19789;BME280;10054;59.332;18.244;2024-02-14T08:47:47;101000.88;;;-0.85;100.00
19789;BME280;10054;59.332;18.244;2024-02-14T08:50:16;101006.45;;;-0.81;100.00
19789;BME280;10054;59.332;18.244;2024-02-14T08:52:46;101008.57;;;-0.78;100.00
19789;BME280;10054;59.332;18.244;2024-02-14T08:55:15;101014.53;;;-0.73;100.00
19789;BME280;10054;59.332;18.244;2024-02-14T08:57:46;101021.42;;;-0.72;100.00
19789;BME280;10054;59.332;18.244;2024-02-14T09:00:17;101023.98;;;-0.69;100.00
19789;BME280;10054;59.332;18.244;2024-02-14T09:02:47;101024.83;;;-0.67;100.00
19789;BME280;10054;59.332;18.244;2024-02-14T09:05:16;101029.58;;;-0.66;100.00
19789;BME280;10054;59.332;18.244;2024-02-14T09:07:46;101036.89;;;-0.64;100.00
19789;BME280;10054;59.332;18.244;2024-02-14T09:10:15;101035.55;;;-0.59;100.00
19789;BME280;10054;59.332;18.244;2024-02-14T09:12:44;101034.65;;;-0.55;100.00
19789;BME280;10054;59.332;18.244;2024-02-14T09:15:13;101035.48;;;-0.52;100.00
19789;BME280;10054;59.332;18.244;2024-02-14T09:17:42;101032.40;;;-0.47;100.00
19789;BME280;10054;59.332;18.244;2024-02-14T09:20:12;101042.72;;;-0.42;100.00
19789;BME280;10054;59.332;18.244;2024-02-14T09:22:41;101044.80;;;-0.36;100.00
19789;BME280;10054;59.332;18.244;2024-02-14T09:25:10;101044.30;;;-0.29;100.00
19789;BME280;10054;59.332;18.244;2024-02-14T09:27:40;101045.95;;;-0.22;100.00
19789;BME280;10054;59.332;18.244;2024-02-14T09:30:10;101043.72;;;-0.16;100.00
19789;BME280;10054;59.332;18.244;2024-02-14T09:32:38;101052.23;;;-0.05;100.00
19789;BME280;10054;59.332;18.244;2024-02-14T09:35:08;101053.33;;;0.09;100.00
19789;BME280;10054;59.332;18.244;2024-02-14T09:37:37;101046.28;;;0.18;100.00
19789;BME280;10054;59.332;18.244;2024-02-14T09:40:09;101049.26;;;0.22;100.00
19789;BME280;10054;59.332;18.244;2024-02-14T09:42:50;101041.94;;;0.20;100.00
19789;BME280;10054;59.332;18.244;2024-02-14T09:45:12;101053.61;;;0.20;100.00
19789;BME280;10054;59.332;18.244;2024-02-14T09:47:42;101054.42;;;0.24;100.00
19789;BME280;10054;59.332;18.244;2024-02-14T09:50:12;101064.34;;;0.26;100.00
19789;BME280;10054;59.332;18.244;2024-02-14T09:52:42;101064.70;;;0.31;100.00
19789;BME280;10054;59.332;18.244;2024-02-14T09:55:11;101065.98;;;0.33;100.00
19789;BME280;10054;59.332;18.244;2024-02-14T09:57:42;101062.05;;;0.36;100.00
19789;BME280;10054;59.332;18.244;2024-02-14T10:00:12;101068.94;;;0.39;100.00
19789;BME280;10054;59.332;18.244;2024-02-14T10:02:44;101062.47;;;0.37;100.00
19789;BME280;10054;59.332;18.244;2024-02-14T10:05:13;101065.88;;;0.41;100.00
19789;BME280;10054;59.332;18.244;2024-02-14T10:07:43;101076.66;;;0.43;100.00
19789;BME280;10054;59.332;18.244;2024-02-14T10:10:13;101071.05;;;0.42;100.00
19789;BME280;10054;59.332;18.244;2024-02-14T10:12:42;101073.20;;;0.43;100.00
19789;BME280;10054;59.332;18.244;2024-02-14T10:15:12;101080.98;;;0.43;100.00
19789;BME280;10054;59.332;18.244;2024-02-14T10:17:41;101087.04;;;0.43;100.00
19789;BME280;10054;59.332;18.244;2024-02-14T10:20:10;101088.80;;;0.41;100.00
19789;BME280;10054;59.332;18.244;2024-02-14T10:22:40;101082.20;;;0.49;100.00
19789;BME280;10054;59.332;18.244;2024-02-14T10:25:09;101086.49;;;0.51;100.00
19789;BME280;10054;59.332;18.244;2024-02-14T10:27:39;101086.49;;;0.51;100.00
19789;BME280;10054;59.332;18.244;2024-02-14T10:30:09;101092.98;;;0.51;100.00
19789;BME280;10054;59.332;18.244;2024-02-14T10:32:41;101089.53;;;0.51;100.00
19789;BME280;10054;59.332;18.244;2024-02-14T10:35:11;101093.41;;;0.52;100.00
19789;BME280;10054;59.332;18.244;2024-02-14T10:37:41;101099.41;;;0.56;100.00
19789;BME280;10054;59.332;18.244;2024-02-14T10:40:10;101096.75;;;0.60;100.00
19789;BME280;10054;59.332;18.244;2024-02-14T10:42:39;101102.76;;;0.64;100.00
19789;BME280;10054;59.332;18.244;2024-02-14T10:45:08;101099.28;;;0.65;100.00
19789;BME280;10054;59.332;18.244;2024-02-14T10:47:40;101099.27;;;0.67;100.00
19789;BME280;10054;59.332;18.244;2024-02-14T10:50:10;101100.95;;;0.69;100.00
19789;BME280;10054;59.332;18.244;2024-02-14T10:52:41;101100.05;;;0.72;100.00
19789;BME280;10054;59.332;18.244;2024-02-14T10:55:11;101095.20;;;0.76;100.00
19789;BME280;10054;59.332;18.244;2024-02-14T10:57:41;101102.06;;;0.80;100.00
19789;BME280;10054;59.332;18.244;2024-02-14T11:00:14;101104.87;;;0.94;100.00
19789;BME280;10054;59.332;18.244;2024-02-14T11:02:45;101094.77;;;1.05;100.00
19789;BME280;10054;59.332;18.244;2024-02-14T11:05:15;101092.11;;;1.08;100.00
19789;BME280;10054;59.332;18.244;2024-02-14T11:07:50;101092.95;;;1.10;100.00
19789;BME280;10054;59.332;18.244;2024-02-14T11:10:17;101088.70;;;1.04;100.00
19789;BME280;10054;59.332;18.244;2024-02-14T11:12:48;101092.19;;;1.03;100.00
19789;BME280;10054;59.332;18.244;2024-02-14T11:15:22;101088.39;;;0.97;100.00
19789;BME280;10054;59.332;18.244;2024-02-14T11:18:02;101093.67;;;0.91;100.00
19789;BME280;10054;59.332;18.244;2024-02-14T11:20:31;101093.28;;;0.88;100.00
19789;BME280;10054;59.332;18.244;2024-02-14T11:23:05;101092.84;;;0.89;100.00
19789;BME280;10054;59.332;18.244;2024-02-14T11:25:34;101090.31;;;0.84;100.00
19789;BME280;10054;59.332;18.244;2024-02-14T11:28:18;101093.79;;;0.83;100.00
19789;BME280;10054;59.332;18.244;2024-02-14T11:30:52;101092.94;;;0.83;100.00
19789;BME280;10054;59.332;18.244;2024-02-14T11:33:26;101095.51;;;0.84;100.00
19789;BME280;10054;59.332;18.244;2024-02-14T11:35:55;101094.14;;;0.89;100.00
19789;BME280;10054;59.332;18.244;2024-02-14T11:38:26;101089.78;;;0.91;100.00
19789;BME280;10054;59.332;18.244;2024-02-14T11:40:57;101098.02;;;0.90;100.00
19789;BME280;10054;59.332;18.244;2024-02-14T11:43:26;101095.05;;;0.86;100.00
19789;BME280;10054;59.332;18.244;2024-02-14T11:45:55;101094.65;;;0.84;100.00
19789;BME280;10054;59.332;18.244;2024-02-14T11:48:24;101102.91;;;0.82;100.00
19789;BME280;10054;59.332;18.244;2024-02-14T11:50:54;101103.37;;;0.80;100.00
19789;BME280;10054;59.332;18.244;2024-02-14T11:53:23;101101.56;;;0.85;100.00
19789;BME280;10054;59.332;18.244;2024-02-14T11:55:52;101099.34;;;0.89;100.00
19789;BME280;10054;59.332;18.244;2024-02-14T11:58:21;101098.43;;;0.91;100.00
19789;BME280;10054;59.332;18.244;2024-02-14T12:00:51;101093.16;;;0.96;100.00
19789;BME280;10054;59.332;18.244;2024-02-14T12:03:26;101101.26;;;1.05;100.00
19789;BME280;10054;59.332;18.244;2024-02-14T12:05:52;101097.73;;;1.09;100.00
19789;BME280;10054;59.332;18.244;2024-02-14T12:08:22;101103.30;;;1.13;100.00
19789;BME280;10054;59.332;18.244;2024-02-14T12:10:51;101107.16;;;1.14;100.00
19789;BME280;10054;59.332;18.244;2024-02-14T12:13:21;101113.66;;;1.14;100.00
19789;BME280;10054;59.332;18.244;2024-02-14T12:15:51;101110.06;;;1.23;100.00
19789;BME280;10054;59.332;18.244;2024-02-14T12:18:21;101113.08;;;1.24;100.00
19789;BME280;10054;59.332;18.244;2024-02-14T12:20:50;101118.78;;;1.19;100.00
19789;BME280;10054;59.332;18.244;2024-02-14T12:23:19;101120.16;;;1.14;100.00
19789;BME280;10054;59.332;18.244;2024-02-14T12:25:49;101123.20;;;1.14;100.00
19789;BME280;10054;59.332;18.244;2024-02-14T12:28:19;101121.87;;;1.15;100.00
19789;BME280;10054;59.332;18.244;2024-02-14T12:30:52;101125.41;;;1.11;100.00
19789;BME280;10054;59.332;18.244;2024-02-14T12:33:26;101127.61;;;1.09;100.00
19789;BME280;10054;59.332;18.244;2024-02-14T12:35:58;101129.73;;;1.11;100.00
19789;BME280;10054;59.332;18.244;2024-02-14T12:38:27;101124.94;;;1.13;100.00
19789;BME280;10054;59.332;18.244;2024-02-14T12:40:56;101131.87;;;1.13;100.00
19789;BME280;10054;59.332;18.244;2024-02-14T12:43:25;101134.55;;;1.08;100.00
19789;BME280;10054;59.332;18.244;2024-02-14T12:45:54;101135.42;;;1.07;100.00